sensor_id;sensor_type;location;lat;lon;timestamp;pressure;altitude;pressure_sealevel;temperature;humidity
63715;BME280;49858;48.956;9.076;2023-04-30T00:01:47;99051.63;;;14.32;100.00
63715;BME280;49858;48.956;9.076;2023-04-30T00:04:15;99061.31;;;14.46;100.00
63715;BME280;49858;48.956;9.076;2023-04-30T00:06:47;99052.09;;;14.65;100.00
63715;BME280;49858;48.956;9.076;2023-04-30T00:09:15;99055.59;;;14.88;100.00
63715;BME280;49858;48.956;9.076;2023-04-30T00:11:43;99057.13;;;14.86;100.00
63715;BME280;49858;48.956;9.076;2023-04-30T00:14:10;99055.81;;;14.76;100.00
63715;BME280;49858;48.956;9.076;2023-04-30T00:16:38;99058.16;;;14.74;100.00
63715;BME280;49858;48.956;9.076;2023-04-30T00:19:06;99055.72;;;14.42;100.00
63715;BME280;49858;48.956;9.076;2023-04-30T00:21:34;99056.28;;;14.28;100.00
63715;BME280;49858;48.956;9.076;2023-04-30T00:24:04;99070.59;;;14.57;100.00
63715;BME280;49858;48.956;9.076;2023-04-30T00:26:32;99066.28;;;14.60;100.00
63715;BME280;49858;48.956;9.076;2023-04-30T00:29:00;99075.91;;;14.69;100.00
63715;BME280;49858;48.956;9.076;2023-04-30T00:31:28;99062.63;;;14.82;100.00
63715;BME280;49858;48.956;9.076;2023-04-30T00:33:55;99062.72;;;14.89;100.00
63715;BME280;49858;48.956;9.076;2023-04-30T00:36:23;99070.16;;;15.15;100.00
63715;BME280;49858;48.956;9.076;2023-04-30T00:38:51;99069.72;;;14.79;100.00
63715;BME280;49858;48.956;9.076;2023-04-30T00:41:21;99087.66;;;14.36;100.00
63715;BME280;49858;48.956;9.076;2023-04-30T00:43:49;99079.69;;;14.08;100.00
63715;BME280;49858;48.956;9.076;2023-04-30T00:46:17;99088.25;;;13.99;100.00
63715;BME280;49858;48.956;9.076;2023-04-30T00:48:45;99093.06;;;14.02;100.00
63715;BME280;49858;48.956;9.076;2023-04-30T00:51:13;99091.31;;;13.94;100.00
63715;BME280;49858;48.956;9.076;2023-04-30T00:53:42;99082.38;;;14.27;100.00
63715;BME280;49858;48.956;9.076;2023-04-30T00:56:12;99079.22;;;14.29;100.00
63715;BME280;49858;48.956;9.076;2023-04-30T00:58:46;99086.22;;;14.46;100.00
63715;BME280;49858;48.956;9.076;2023-04-30T01:01:15;99077.09;;;14.68;100.00
63715;BME280;49858;48.956;9.076;2023-04-30T01:03:44;99076.19;;;14.61;100.00
63715;BME280;49858;48.956;9.076;2023-04-30T01:06:12;99083.41;;;14.69;100.00
63715;BME280;49858;48.956;9.076;2023-04-30T01:08:41;99082.94;;;14.93;100.00
63715;BME280;49858;48.956;9.076;2023-04-30T01:11:20;99080.91;;;14.90;100.00
63715;BME280;49858;48.956;9.076;2023-04-30T01:13:59;99072.06;;;14.77;100.00
63715;BME280;49858;48.956;9.076;2023-04-30T01:16:35;99072.88;;;15.12;100.00
63715;BME280;49858;48.956;9.076;2023-04-30T01:19:09;99070.63;;;14.87;100.00
63715;BME280;49858;48.956;9.076;2023-04-30T01:21:44;99077.59;;;14.77;100.00
63715;BME280;49858;48.956;9.076;2023-04-30T01:24:29;99072.56;;;14.56;100.00
63715;BME280;49858;48.956;9.076;2023-04-30T01:27:10;99068.28;;;14.36;100.00
63715;BME280;49858;48.956;9.076;2023-04-30T01:29:42;99068.81;;;14.45;100.00
63715;BME280;49858;48.956;9.076;2023-04-30T01:32:10;99069.06;;;14.60;100.00
63715;BME280;49858;48.956;9.076;2023-04-30T01:34:38;99062.59;;;14.52;100.00
63715;BME280;49858;48.956;9.076;2023-04-30T01:37:15;99070.63;;;14.61;100.00
63715;BME280;49858;48.956;9.076;2023-04-30T01:40:06;99071.41;;;14.35;100.00
63715;BME280;49858;48.956;9.076;2023-04-30T01:42:40;99070.91;;;14.52;100.00
63715;BME280;49858;48.956;9.076;2023-04-30T01:45:21;99066.16;;;14.52;100.00
63715;BME280;49858;48.956;9.076;2023-04-30T01:47:58;99074.03;;;14.01;100.00
63715;BME280;49858;48.956;9.076;2023-04-30T01:50:37;99068.16;;;14.29;100.00
63715;BME280;49858;48.956;9.076;2023-04-30T01:53:13;99069.06;;;14.37;100.00
63715;BME280;49858;48.956;9.076;2023-04-30T01:55:49;99069.06;;;14.10;100.00
63715;BME280;49858;48.956;9.076;2023-04-30T01:58:19;99063.44;;;13.80;100.00
63715;BME280;49858;48.956;9.076;2023-04-30T02:00:50;99063.16;;;14.12;100.00
63715;BME280;49858;48.956;9.076;2023-04-30T02:03:19;99061.16;;;14.35;100.00
63715;BME280;49858;48.956;9.076;2023-04-30T02:05:47;99070.59;;;14.34;100.00
63715;BME280;49858;48.956;9.076;2023-04-30T02:08:15;99065.97;;;14.42;100.00
63715;BME280;49858;48.956;9.076;2023-04-30T02:10:42;99067.09;;;14.37;100.00
63715;BME280;49858;48.956;9.076;2023-04-30T02:13:10;99059.03;;;14.51;100.00
63715;BME280;49858;48.956;9.076;2023-04-30T02:15:38;99056.66;;;14.50;100.00
63715;BME280;49858;48.956;9.076;2023-04-30T02:18:08;99050.00;;;14.54;100.00
63715;BME280;49858;48.956;9.076;2023-04-30T02:20:36;99051.13;;;14.50;100.00
63715;BME280;49858;48.956;9.076;2023-04-30T02:23:04;99062.28;;;14.30;100.00
63715;BME280;49858;48.956;9.076;2023-04-30T02:25:32;99061.25;;;14.42;100.00
63715;BME280;49858;48.956;9.076;2023-04-30T02:28:03;99059.16;;;14.59;100.00
63715;BME280;49858;48.956;9.076;2023-04-30T02:30:31;99057.22;;;14.36;100.00
63715;BME280;49858;48.956;9.076;2023-04-30T02:32:59;99057.84;;;14.26;100.00
63715;BME280;49858;48.956;9.076;2023-04-30T02:35:32;99058.91;;;14.18;100.00
63715;BME280;49858;48.956;9.076;2023-04-30T02:38:00;99058.69;;;14.30;100.00
63715;BME280;49858;48.956;9.076;2023-04-30T02:40:28;99060.97;;;13.98;100.00
63715;BME280;49858;48.956;9.076;2023-04-30T02:42:55;99049.97;;;13.78;100.00
63715;BME280;49858;48.956;9.076;2023-04-30T02:45:23;99059.88;;;14.06;100.00
63715;BME280;49858;48.956;9.076;2023-04-30T02:47:51;99061.09;;;14.31;100.00
63715;BME280;49858;48.956;9.076;2023-04-30T02:50:19;99053.22;;;14.07;100.00
63715;BME280;49858;48.956;9.076;2023-04-30T02:52:49;99054.59;;;14.20;100.00
63715;BME280;49858;48.956;9.076;2023-04-30T02:55:17;99058.47;;;14.42;100.00
63715;BME280;49858;48.956;9.076;2023-04-30T02:57:44;99059.03;;;14.02;100.00
63715;BME280;49858;48.956;9.076;2023-04-30T03:00:12;99053.88;;;14.00;100.00
63715;BME280;49858;48.956;9.076;2023-04-30T03:02:41;99056.41;;;13.86;100.00
63715;BME280;49858;48.956;9.076;2023-04-30T03:05:09;99056.53;;;13.93;100.00
63715;BME280;49858;48.956;9.076;2023-04-30T03:07:37;99054.97;;;14.19;100.00
63715;BME280;49858;48.956;9.076;2023-04-30T03:10:08;99044.63;;;14.16;100.00
63715;BME280;49858;48.956;9.076;2023-04-30T03:12:37;99047.78;;;14.14;100.00
63715;BME280;49858;48.956;9.076;2023-04-30T03:15:06;99048.09;;;14.09;100.00
63715;BME280;49858;48.956;9.076;2023-04-30T03:17:34;99051.59;;;13.18;100.00
63715;BME280;49858;48.956;9.076;2023-04-30T03:20:05;99052.47;;;13.64;100.00
63715;BME280;49858;48.956;9.076;2023-04-30T03:22:33;99054.69;;;13.55;100.00
63715;BME280;49858;48.956;9.076;2023-04-30T03:25:01;99054.13;;;13.92;100.00
63715;BME280;49858;48.956;9.076;2023-04-30T03:27:30;99057.28;;;13.90;100.00
63715;BME280;49858;48.956;9.076;2023-04-30T03:29:58;99046.91;;;13.84;100.00
63715;BME280;49858;48.956;9.076;2023-04-30T03:32:26;99045.16;;;13.98;100.00
63715;BME280;49858;48.956;9.076;2023-04-30T03:34:54;99038.16;;;13.81;100.00
63715;BME280;49858;48.956;9.076;2023-04-30T03:37:22;99054.34;;;14.06;100.00
63715;BME280;49858;48.956;9.076;2023-04-30T03:39:50;99050.00;;;13.82;100.00
63715;BME280;49858;48.956;9.076;2023-04-30T03:42:19;99052.66;;;13.98;100.00
63715;BME280;49858;48.956;9.076;2023-04-30T03:44:48;99051.56;;;13.57;100.00
63715;BME280;49858;48.956;9.076;2023-04-30T03:47:16;99044.56;;;13.63;100.00
63715;BME280;49858;48.956;9.076;2023-04-30T03:49:45;99050.22;;;13.93;100.00
63715;BME280;49858;48.956;9.076;2023-04-30T03:52:21;99043.75;;;13.85;100.00
63715;BME280;49858;48.956;9.076;2023-04-30T03:54:49;99050.47;;;14.11;100.00
63715;BME280;49858;48.956;9.076;2023-04-30T03:57:18;99051.03;;;14.20;100.00
63715;BME280;49858;48.956;9.076;2023-04-30T03:59:49;99046.22;;;13.90;100.00
63715;BME280;49858;48.956;9.076;2023-04-30T04:02:17;99054.78;;;14.35;100.00
63715;BME280;49858;48.956;9.076;2023-04-30T04:04:45;99053.13;;;14.53;100.00
63715;BME280;49858;48.956;9.076;2023-04-30T04:07:13;99042.44;;;14.51;100.00
63715;BME280;49858;48.956;9.076;2023-04-30T04:09:41;99052.84;;;14.09;100.00
63715;BME280;49858;48.956;9.076;2023-04-30T04:12:08;99051.72;;;14.13;100.00
63715;BME280;49858;48.956;9.076;2023-04-30T04:14:36;99055.50;;;14.28;100.00
63715;BME280;49858;48.956;9.076;2023-04-30T04:17:06;99056.19;;;14.21;100.00
63715;BME280;49858;48.956;9.076;2023-04-30T04:19:34;99053.69;;;14.39;100.00
63715;BME280;49858;48.956;9.076;2023-04-30T04:22:02;99057.22;;;14.36;100.00
63715;BME280;49858;48.956;9.076;2023-04-30T04:24:30;99062.25;;;14.04;100.00
63715;BME280;49858;48.956;9.076;2023-04-30T04:26:58;99072.09;;;14.28;100.00
63715;BME280;49858;48.956;9.076;2023-04-30T04:29:28;99062.03;;;14.43;100.00
63715;BME280;49858;48.956;9.076;2023-04-30T04:31:56;99064.56;;;14.51;100.00
63715;BME280;49858;48.956;9.076;2023-04-30T04:34:27;99064.72;;;14.62;100.00
63715;BME280;49858;48.956;9.076;2023-04-30T04:36:56;99068.59;;;14.57;100.00
63715;BME280;49858;48.956;9.076;2023-04-30T04:39:24;99065.81;;;14.84;100.00
63715;BME280;49858;48.956;9.076;2023-04-30T04:41:52;99074.53;;;14.56;100.00
63715;BME280;49858;48.956;9.076;2023-04-30T04:44:21;99073.13;;;14.69;100.00
63715;BME280;49858;48.956;9.076;2023-04-30T04:46:49;99074.16;;;14.57;100.00
63715;BME280;49858;48.956;9.076;2023-04-30T04:49:19;99074.88;;;14.81;100.00
63715;BME280;49858;48.956;9.076;2023-04-30T04:51:48;99075.75;;;14.59;100.00
63715;BME280;49858;48.956;9.076;2023-04-30T04:54:16;99077.88;;;14.99;100.00
63715;BME280;49858;48.956;9.076;2023-04-30T04:56:44;99078.38;;;15.08;100.00
63715;BME280;49858;48.956;9.076;2023-04-30T04:59:12;99083.81;;;14.71;100.00
63715;BME280;49858;48.956;9.076;2023-04-30T05:01:40;99077.81;;;13.89;100.00
63715;BME280;49858;48.956;9.076;2023-04-30T05:04:09;99083.44;;;13.96;100.00
63715;BME280;49858;48.956;9.076;2023-04-30T05:06:39;99086.47;;;14.37;100.00
63715;BME280;49858;48.956;9.076;2023-04-30T05:09:09;99075.16;;;13.96;100.00
63715;BME280;49858;48.956;9.076;2023-04-30T05:11:37;99073.44;;;13.88;100.00
63715;BME280;49858;48.956;9.076;2023-04-30T05:14:07;99077.97;;;13.77;100.00
63715;BME280;49858;48.956;9.076;2023-04-30T05:16:37;99082.47;;;14.08;100.00
63715;BME280;49858;48.956;9.076;2023-04-30T05:19:05;99086.88;;;14.13;100.00
63715;BME280;49858;48.956;9.076;2023-04-30T05:21:38;99085.66;;;14.60;100.00
63715;BME280;49858;48.956;9.076;2023-04-30T05:24:06;99085.97;;;15.15;100.00
63715;BME280;49858;48.956;9.076;2023-04-30T05:26:35;99084.38;;;15.14;100.00
63715;BME280;49858;48.956;9.076;2023-04-30T05:29:05;99077.91;;;15.02;100.00
63715;BME280;49858;48.956;9.076;2023-04-30T05:31:33;99083.19;;;15.15;100.00
63715;BME280;49858;48.956;9.076;2023-04-30T05:34:01;99085.25;;;14.88;100.00
63715;BME280;49858;48.956;9.076;2023-04-30T05:36:31;99077.47;;;14.97;100.00
63715;BME280;49858;48.956;9.076;2023-04-30T05:38:59;99083.22;;;14.85;100.00
63715;BME280;49858;48.956;9.076;2023-04-30T05:41:30;99083.16;;;14.51;100.00
63715;BME280;49858;48.956;9.076;2023-04-30T05:44:03;99089.94;;;14.83;100.00
63715;BME280;49858;48.956;9.076;2023-04-30T05:46:33;99080.06;;;14.86;100.00
63715;BME280;49858;48.956;9.076;2023-04-30T05:49:02;99089.06;;;15.09;100.00
63715;BME280;49858;48.956;9.076;2023-04-30T05:51:29;99084.34;;;15.44;100.00
63715;BME280;49858;48.956;9.076;2023-04-30T05:53:58;99085.50;;;15.39;100.00
63715;BME280;49858;48.956;9.076;2023-04-30T05:56:26;99085.16;;;15.48;100.00
63715;BME280;49858;48.956;9.076;2023-04-30T05:58:55;99080.00;;;15.46;100.00
63715;BME280;49858;48.956;9.076;2023-04-30T06:01:25;99077.69;;;14.85;100.00
63715;BME280;49858;48.956;9.076;2023-04-30T06:03:54;99076.78;;;14.77;100.00
63715;BME280;49858;48.956;9.076;2023-04-30T06:06:22;99079.19;;;14.78;100.00
63715;BME280;49858;48.956;9.076;2023-04-30T06:08:50;99087.22;;;14.87;100.00
63715;BME280;49858;48.956;9.076;2023-04-30T06:11:18;99075.59;;;14.48;100.00
63715;BME280;49858;48.956;9.076;2023-04-30T06:13:46;99085.28;;;14.91;100.00
63715;BME280;49858;48.956;9.076;2023-04-30T06:16:14;99084.16;;;14.66;100.00
63715;BME280;49858;48.956;9.076;2023-04-30T06:18:44;99080.59;;;14.95;100.00
63715;BME280;49858;48.956;9.076;2023-04-30T06:21:12;99087.66;;;15.23;100.00
63715;BME280;49858;48.956;9.076;2023-04-30T06:23:39;99087.06;;;15.40;100.00
63715;BME280;49858;48.956;9.076;2023-04-30T06:26:07;99086.78;;;15.52;100.00
63715;BME280;49858;48.956;9.076;2023-04-30T06:28:35;99079.63;;;15.81;100.00
63715;BME280;49858;48.956;9.076;2023-04-30T06:31:03;99086.31;;;15.77;100.00
63715;BME280;49858;48.956;9.076;2023-04-30T06:33:31;99084.22;;;15.67;100.00
63715;BME280;49858;48.956;9.076;2023-04-30T06:36:00;99091.59;;;15.93;100.00
63715;BME280;49858;48.956;9.076;2023-04-30T06:38:29;99083.50;;;15.73;100.00
63715;BME280;49858;48.956;9.076;2023-04-30T06:40:57;99083.84;;;15.68;100.00
63715;BME280;49858;48.956;9.076;2023-04-30T06:43:25;99080.25;;;15.30;100.00
63715;BME280;49858;48.956;9.076;2023-04-30T06:45:52;99099.53;;;15.94;100.00
63715;BME280;49858;48.956;9.076;2023-04-30T06:48:20;99092.31;;;15.82;100.00
63715;BME280;49858;48.956;9.076;2023-04-30T06:50:48;99084.81;;;15.49;100.00
63715;BME280;49858;48.956;9.076;2023-04-30T06:53:17;99087.31;;;14.94;100.00
63715;BME280;49858;48.956;9.076;2023-04-30T06:55:45;99089.81;;;15.03;100.00
63715;BME280;49858;48.956;9.076;2023-04-30T06:58:13;99095.63;;;15.24;100.00
63715;BME280;49858;48.956;9.076;2023-04-30T07:00:41;99089.13;;;15.47;100.00
63715;BME280;49858;48.956;9.076;2023-04-30T07:03:09;99093.44;;;15.78;100.00
63715;BME280;49858;48.956;9.076;2023-04-30T07:05:37;99091.41;;;16.71;100.00
63715;BME280;49858;48.956;9.076;2023-04-30T07:08:05;99089.19;;;17.01;100.00
63715;BME280;49858;48.956;9.076;2023-04-30T07:10:34;99080.47;;;16.99;100.00
63715;BME280;49858;48.956;9.076;2023-04-30T07:13:02;99081.41;;;17.32;100.00
63715;BME280;49858;48.956;9.076;2023-04-30T07:15:30;99078.28;;;17.62;100.00
63715;BME280;49858;48.956;9.076;2023-04-30T07:17:58;99068.78;;;17.70;100.00
63715;BME280;49858;48.956;9.076;2023-04-30T07:20:26;99072.31;;;17.63;100.00
63715;BME280;49858;48.956;9.076;2023-04-30T07:22:54;99065.47;;;17.25;100.00
63715;BME280;49858;48.956;9.076;2023-04-30T07:25:22;99071.78;;;17.15;100.00
63715;BME280;49858;48.956;9.076;2023-04-30T07:27:51;99074.19;;;17.20;100.00
63715;BME280;49858;48.956;9.076;2023-04-30T07:30:19;99080.53;;;17.17;100.00
63715;BME280;49858;48.956;9.076;2023-04-30T07:32:50;99079.66;;;17.02;100.00
63715;BME280;49858;48.956;9.076;2023-04-30T07:35:22;99077.72;;;17.06;100.00
63715;BME280;49858;48.956;9.076;2023-04-30T07:42:19;99060.78;;;17.51;100.00
63715;BME280;49858;48.956;9.076;2023-04-30T07:45:16;99071.38;;;17.09;100.00
63715;BME280;49858;48.956;9.076;2023-04-30T07:48:15;99064.72;;;17.43;100.00
63715;BME280;49858;48.956;9.076;2023-04-30T07:50:46;99057.69;;;17.95;98.67
63715;BME280;49858;48.956;9.076;2023-04-30T07:53:16;99060.03;;;18.50;97.46
63715;BME280;49858;48.956;9.076;2023-04-30T07:55:45;99057.59;;;18.81;95.40
63715;BME280;49858;48.956;9.076;2023-04-30T07:58:12;99058.19;;;19.35;87.46
63715;BME280;49858;48.956;9.076;2023-04-30T08:00:42;99057.63;;;18.70;89.32
63715;BME280;49858;48.956;9.076;2023-04-30T08:03:09;99061.06;;;19.13;89.67
63715;BME280;49858;48.956;9.076;2023-04-30T08:05:38;99053.84;;;19.23;78.92
63715;BME280;49858;48.956;9.076;2023-04-30T08:08:06;99063.59;;;19.67;78.80
63715;BME280;49858;48.956;9.076;2023-04-30T08:10:34;99060.56;;;19.36;83.57
63715;BME280;49858;48.956;9.076;2023-04-30T08:13:03;99051.88;;;19.20;80.26
63715;BME280;49858;48.956;9.076;2023-04-30T08:15:32;99051.41;;;19.29;72.98
63715;BME280;49858;48.956;9.076;2023-04-30T08:18:06;99050.19;;;19.40;74.45
63715;BME280;49858;48.956;9.076;2023-04-30T08:20:34;99047.44;;;19.30;77.70
63715;BME280;49858;48.956;9.076;2023-04-30T08:23:04;99037.25;;;19.72;74.59
63715;BME280;49858;48.956;9.076;2023-04-30T08:25:32;99046.66;;;19.92;70.85
63715;BME280;49858;48.956;9.076;2023-04-30T08:28:00;99049.38;;;19.44;74.64
63715;BME280;49858;48.956;9.076;2023-04-30T08:30:28;99055.09;;;19.11;68.71
63715;BME280;49858;48.956;9.076;2023-04-30T08:32:56;99051.16;;;19.79;70.16
63715;BME280;49858;48.956;9.076;2023-04-30T08:35:25;99041.59;;;20.25;65.39
63715;BME280;49858;48.956;9.076;2023-04-30T08:37:55;99049.34;;;20.06;65.29
63715;BME280;49858;48.956;9.076;2023-04-30T08:40:23;99056.56;;;20.45;72.89
63715;BME280;49858;48.956;9.076;2023-04-30T08:43:13;99052.16;;;21.19;60.67
63715;BME280;49858;48.956;9.076;2023-04-30T08:45:42;99053.94;;;20.27;62.75
63715;BME280;49858;48.956;9.076;2023-04-30T08:48:10;99050.19;;;20.48;57.72
63715;BME280;49858;48.956;9.076;2023-04-30T08:50:42;99058.28;;;21.11;59.25
63715;BME280;49858;48.956;9.076;2023-04-30T08:53:11;99052.63;;;21.76;60.94
63715;BME280;49858;48.956;9.076;2023-04-30T08:55:41;99064.00;;;20.17;62.00
63715;BME280;49858;48.956;9.076;2023-04-30T08:58:11;99058.97;;;20.02;65.12
63715;BME280;49858;48.956;9.076;2023-04-30T09:00:39;99061.00;;;20.42;67.03
63715;BME280;49858;48.956;9.076;2023-04-30T09:03:07;99057.38;;;19.34;70.15
63715;BME280;49858;48.956;9.076;2023-04-30T09:05:35;99054.03;;;18.62;80.15
63715;BME280;49858;48.956;9.076;2023-04-30T09:08:05;99054.44;;;18.72;77.19
63715;BME280;49858;48.956;9.076;2023-04-30T09:10:34;99056.59;;;19.30;76.53
63715;BME280;49858;48.956;9.076;2023-04-30T09:13:05;99050.47;;;19.60;74.06
63715;BME280;49858;48.956;9.076;2023-04-30T09:15:35;99052.19;;;20.44;69.73
63715;BME280;49858;48.956;9.076;2023-04-30T09:18:07;99036.84;;;20.22;69.58
63715;BME280;49858;48.956;9.076;2023-04-30T09:20:36;99052.88;;;19.51;70.48
63715;BME280;49858;48.956;9.076;2023-04-30T09:23:07;99059.19;;;20.22;67.04
63715;BME280;49858;48.956;9.076;2023-04-30T09:25:38;99048.19;;;20.45;65.30
63715;BME280;49858;48.956;9.076;2023-04-30T09:28:08;99044.09;;;19.63;64.17
63715;BME280;49858;48.956;9.076;2023-04-30T09:30:40;99043.38;;;19.41;64.79
63715;BME280;49858;48.956;9.076;2023-04-30T09:33:08;99042.78;;;19.75;62.33
63715;BME280;49858;48.956;9.076;2023-04-30T09:35:38;99052.63;;;19.31;64.93
63715;BME280;49858;48.956;9.076;2023-04-30T09:38:25;99052.13;;;20.06;67.14
63715;BME280;49858;48.956;9.076;2023-04-30T09:40:53;99044.09;;;19.56;67.01
63715;BME280;49858;48.956;9.076;2023-04-30T09:43:21;99047.25;;;19.65;65.68
63715;BME280;49858;48.956;9.076;2023-04-30T09:45:51;99056.72;;;20.27;61.24
63715;BME280;49858;48.956;9.076;2023-04-30T09:48:21;99050.50;;;20.09;59.16
63715;BME280;49858;48.956;9.076;2023-04-30T09:50:49;99051.56;;;20.71;63.82
63715;BME280;49858;48.956;9.076;2023-04-30T09:53:19;99045.88;;;19.22;69.90
63715;BME280;49858;48.956;9.076;2023-04-30T09:55:50;99048.66;;;20.81;61.59
63715;BME280;49858;48.956;9.076;2023-04-30T09:58:18;99047.94;;;21.08;63.54
63715;BME280;49858;48.956;9.076;2023-04-30T10:00:46;99050.66;;;21.11;61.72
63715;BME280;49858;48.956;9.076;2023-04-30T10:03:17;99045.94;;;21.39;59.44
63715;BME280;49858;48.956;9.076;2023-04-30T10:05:48;99056.56;;;20.49;66.55
63715;BME280;49858;48.956;9.076;2023-04-30T10:08:24;99044.97;;;20.88;57.93
63715;BME280;49858;48.956;9.076;2023-04-30T10:10:57;99044.28;;;20.80;59.57
63715;BME280;49858;48.956;9.076;2023-04-30T10:13:28;99046.56;;;20.06;64.06
63715;BME280;49858;48.956;9.076;2023-04-30T10:16:00;99043.94;;;20.30;63.49
63715;BME280;49858;48.956;9.076;2023-04-30T10:18:33;99040.69;;;20.38;62.63
63715;BME280;49858;48.956;9.076;2023-04-30T10:21:02;99036.91;;;20.59;60.00
63715;BME280;49858;48.956;9.076;2023-04-30T10:23:37;99038.38;;;21.36;57.49
63715;BME280;49858;48.956;9.076;2023-04-30T10:26:07;99040.91;;;21.27;52.43
63715;BME280;49858;48.956;9.076;2023-04-30T10:28:37;99044.19;;;20.84;53.72
63715;BME280;49858;48.956;9.076;2023-04-30T10:31:06;99040.75;;;19.86;58.51
63715;BME280;49858;48.956;9.076;2023-04-30T10:33:42;99037.94;;;20.31;54.19
63715;BME280;49858;48.956;9.076;2023-04-30T10:36:22;99033.06;;;20.42;56.38
63715;BME280;49858;48.956;9.076;2023-04-30T10:38:52;99038.56;;;20.53;54.54
63715;BME280;49858;48.956;9.076;2023-04-30T10:41:20;99038.41;;;20.67;54.58
63715;BME280;49858;48.956;9.076;2023-04-30T10:43:49;99040.31;;;20.74;54.23
63715;BME280;49858;48.956;9.076;2023-04-30T10:46:22;99039.47;;;20.81;53.43
63715;BME280;49858;48.956;9.076;2023-04-30T10:48:51;99038.13;;;20.92;54.79
63715;BME280;49858;48.956;9.076;2023-04-30T10:51:20;99030.63;;;20.48;56.21
63715;BME280;49858;48.956;9.076;2023-04-30T10:53:50;99020.91;;;20.60;53.03
63715;BME280;49858;48.956;9.076;2023-04-30T10:56:32;99027.50;;;20.80;55.52
63715;BME280;49858;48.956;9.076;2023-04-30T10:59:01;99030.16;;;20.57;55.31
63715;BME280;49858;48.956;9.076;2023-04-30T11:01:29;99031.63;;;20.65;55.56
63715;BME280;49858;48.956;9.076;2023-04-30T11:04:05;99030.94;;;20.57;55.52
63715;BME280;49858;48.956;9.076;2023-04-30T11:06:49;99034.31;;;20.38;54.39
63715;BME280;49858;48.956;9.076;2023-04-30T11:09:34;99032.88;;;20.19;55.03
63715;BME280;49858;48.956;9.076;2023-04-30T11:12:10;99025.03;;;20.03;53.73
63715;BME280;49858;48.956;9.076;2023-04-30T11:14:43;99021.16;;;20.35;55.31
63715;BME280;49858;48.956;9.076;2023-04-30T11:17:13;99029.00;;;20.06;55.72
63715;BME280;49858;48.956;9.076;2023-04-30T11:19:49;99020.41;;;19.86;60.28
63715;BME280;49858;48.956;9.076;2023-04-30T11:22:20;99026.66;;;20.01;58.98
63715;BME280;49858;48.956;9.076;2023-04-30T11:24:53;99020.78;;;19.88;57.88
63715;BME280;49858;48.956;9.076;2023-04-30T11:27:24;99022.97;;;20.90;52.88
63715;BME280;49858;48.956;9.076;2023-04-30T11:29:53;99007.91;;;21.11;53.42
63715;BME280;49858;48.956;9.076;2023-04-30T11:32:23;99014.94;;;20.61;54.36
63715;BME280;49858;48.956;9.076;2023-04-30T11:34:53;99005.56;;;21.09;51.24
63715;BME280;49858;48.956;9.076;2023-04-30T11:37:28;99007.69;;;21.29;53.58
63715;BME280;49858;48.956;9.076;2023-04-30T11:39:56;99008.88;;;20.66;55.70
63715;BME280;49858;48.956;9.076;2023-04-30T11:42:28;98996.06;;;20.28;56.41
63715;BME280;49858;48.956;9.076;2023-04-30T11:45:05;99004.25;;;20.53;53.94
63715;BME280;49858;48.956;9.076;2023-04-30T11:47:38;99000.53;;;21.55;53.37
63715;BME280;49858;48.956;9.076;2023-04-30T11:50:08;98996.97;;;21.24;53.68
63715;BME280;49858;48.956;9.076;2023-04-30T11:52:36;98994.47;;;21.33;58.07
63715;BME280;49858;48.956;9.076;2023-04-30T11:55:06;98998.41;;;21.62;58.96
63715;BME280;49858;48.956;9.076;2023-04-30T11:57:40;98998.53;;;22.92;49.84
63715;BME280;49858;48.956;9.076;2023-04-30T12:00:12;98988.66;;;21.47;51.94
63715;BME280;49858;48.956;9.076;2023-04-30T12:02:41;98988.75;;;21.67;50.83
63715;BME280;49858;48.956;9.076;2023-04-30T12:05:12;98985.44;;;21.99;48.72
63715;BME280;49858;48.956;9.076;2023-04-30T12:07:46;98984.69;;;21.72;53.00
63715;BME280;49858;48.956;9.076;2023-04-30T12:10:14;98978.63;;;21.50;53.17
63715;BME280;49858;48.956;9.076;2023-04-30T12:12:46;98987.44;;;21.75;53.30
63715;BME280;49858;48.956;9.076;2023-04-30T12:15:19;98985.53;;;21.11;48.54
63715;BME280;49858;48.956;9.076;2023-04-30T12:17:48;98979.97;;;21.41;51.65
63715;BME280;49858;48.956;9.076;2023-04-30T12:20:18;98969.84;;;21.75;52.78
63715;BME280;49858;48.956;9.076;2023-04-30T12:22:47;98967.81;;;21.75;52.92
63715;BME280;49858;48.956;9.076;2023-04-30T12:25:16;98969.91;;;21.44;50.75
63715;BME280;49858;48.956;9.076;2023-04-30T12:27:47;98972.88;;;22.07;48.85
63715;BME280;49858;48.956;9.076;2023-04-30T12:30:18;98969.81;;;21.51;51.84
63715;BME280;49858;48.956;9.076;2023-04-30T12:32:49;98982.25;;;21.97;51.66
63715;BME280;49858;48.956;9.076;2023-04-30T12:35:19;98976.88;;;21.02;52.83
63715;BME280;49858;48.956;9.076;2023-04-30T12:37:49;98973.78;;;21.23;50.29
63715;BME280;49858;48.956;9.076;2023-04-30T12:40:18;98974.53;;;21.27;50.31
63715;BME280;49858;48.956;9.076;2023-04-30T12:42:48;98975.13;;;21.69;49.80
63715;BME280;49858;48.956;9.076;2023-04-30T12:48:19;98972.91;;;22.90;44.60
63715;BME280;49858;48.956;9.076;2023-04-30T12:50:51;98971.38;;;22.03;44.68
63715;BME280;49858;48.956;9.076;2023-04-30T12:53:22;98971.47;;;21.95;47.56
63715;BME280;49858;48.956;9.076;2023-04-30T12:56:06;98957.09;;;21.47;48.30
63715;BME280;49858;48.956;9.076;2023-04-30T12:58:36;98961.06;;;20.88;49.38
63715;BME280;49858;48.956;9.076;2023-04-30T13:01:05;98955.06;;;20.59;50.63
63715;BME280;49858;48.956;9.076;2023-04-30T13:03:38;98942.19;;;20.65;53.84
63715;BME280;49858;48.956;9.076;2023-04-30T13:06:07;98953.47;;;20.58;50.61
63715;BME280;49858;48.956;9.076;2023-04-30T13:08:36;98943.75;;;21.27;52.80
63715;BME280;49858;48.956;9.076;2023-04-30T13:11:23;98948.78;;;21.39;49.37
63715;BME280;49858;48.956;9.076;2023-04-30T13:13:53;98944.84;;;21.06;52.48
63715;BME280;49858;48.956;9.076;2023-04-30T13:16:22;98943.63;;;20.80;51.14
63715;BME280;49858;48.956;9.076;2023-04-30T13:18:51;98936.63;;;21.23;49.33